sensor_id;sensor_type;location;lat;lon;timestamp;pressure;altitude;pressure_sealevel;temperature;humidity
8653;BME280;4364;52.426;9.424;2022-12-16T00:01:24;100570.47;;;-7.14;89.25
8653;BME280;4364;52.426;9.424;2022-12-16T00:03:53;100571.78;;;-7.26;89.09
8653;BME280;4364;52.426;9.424;2022-12-16T00:06:23;100577.06;;;-7.26;89.35
8653;BME280;4364;52.426;9.424;2022-12-16T00:08:50;100574.59;;;-7.28;89.21
8653;BME280;4364;52.426;9.424;2022-12-16T00:11:17;100573.25;;;-7.23;89.36
8653;BME280;4364;52.426;9.424;2022-12-16T00:13:45;100570.13;;;-7.19;89.20
8653;BME280;4364;52.426;9.424;2022-12-16T00:16:14;100559.88;;;-7.22;89.01
8653;BME280;4364;52.426;9.424;2022-12-16T00:18:41;100570.13;;;-7.19;89.28
8653;BME280;4364;52.426;9.424;2022-12-16T00:21:08;100564.69;;;-7.17;89.32
8653;BME280;4364;52.426;9.424;2022-12-16T00:23:35;100567.81;;;-7.14;88.91
8653;BME280;4364;52.426;9.424;2022-12-16T00:26:04;100567.34;;;-7.09;88.97
8653;BME280;4364;52.426;9.424;2022-12-16T00:28:31;100567.19;;;-7.08;88.72
8653;BME280;4364;52.426;9.424;2022-12-16T00:30:58;100574.13;;;-7.06;88.86
8653;BME280;4364;52.426;9.424;2022-12-16T00:33:26;100567.19;;;-7.08;88.52
8653;BME280;4364;52.426;9.424;2022-12-16T00:35:53;100581.03;;;-7.14;88.44
8653;BME280;4364;52.426;9.424;2022-12-16T00:38:21;100577.91;;;-7.17;88.85
8653;BME280;4364;52.426;9.424;2022-12-16T00:40:48;100571.31;;;-7.13;88.78
8653;BME280;4364;52.426;9.424;2022-12-16T00:43:18;100573.97;;;-7.13;88.24
8653;BME280;4364;52.426;9.424;2022-12-16T00:45:45;100565.66;;;-7.18;88.49
8653;BME280;4364;52.426;9.424;2022-12-16T00:48:12;100565.66;;;-7.18;88.63
8653;BME280;4364;52.426;9.424;2022-12-16T00:50:39;100568.16;;;-7.17;88.59
8653;BME280;4364;52.426;9.424;2022-12-16T00:53:05;100575.75;;;-7.14;88.57
8653;BME280;4364;52.426;9.424;2022-12-16T00:55:32;100567.50;;;-7.19;88.21
8653;BME280;4364;52.426;9.424;2022-12-16T00:57:58;100579.88;;;-7.19;88.49
8653;BME280;4364;52.426;9.424;2022-12-16T01:00:25;100576.25;;;-7.10;88.40
8653;BME280;4364;52.426;9.424;2022-12-16T01:02:52;100577.09;;;-7.10;88.35
8653;BME280;4364;52.426;9.424;2022-12-16T01:05:20;100573.94;;;-7.05;88.08
8653;BME280;4364;52.426;9.424;2022-12-16T01:07:47;100575.44;;;-7.11;87.55
8653;BME280;4364;52.426;9.424;2022-12-16T01:10:14;100575.25;;;-7.17;87.82
8653;BME280;4364;52.426;9.424;2022-12-16T01:12:40;100577.56;;;-7.14;87.90
8653;BME280;4364;52.426;9.424;2022-12-16T01:15:08;100577.56;;;-7.22;87.66
8653;BME280;4364;52.426;9.424;2022-12-16T01:17:35;100581.53;;;-7.27;88.00
8653;BME280;4364;52.426;9.424;2022-12-16T01:20:01;100577.72;;;-7.32;87.82
8653;BME280;4364;52.426;9.424;2022-12-16T01:22:30;100584.34;;;-7.36;88.08
8653;BME280;4364;52.426;9.424;2022-12-16T01:24:58;100594.75;;;-7.27;88.16
8653;BME280;4364;52.426;9.424;2022-12-16T01:27:25;100595.41;;;-7.24;88.19
8653;BME280;4364;52.426;9.424;2022-12-16T01:29:52;100592.59;;;-7.23;87.85
8653;BME280;4364;52.426;9.424;2022-12-16T01:32:21;100603.84;;;-7.21;87.81
8653;BME280;4364;52.426;9.424;2022-12-16T01:34:51;100599.66;;;-7.32;87.64
8653;BME280;4364;52.426;9.424;2022-12-16T01:37:22;100606.91;;;-7.42;87.34
8653;BME280;4364;52.426;9.424;2022-12-16T01:39:49;100608.59;;;-7.41;87.95
8653;BME280;4364;52.426;9.424;2022-12-16T01:42:19;100607.41;;;-7.38;88.08
8653;BME280;4364;52.426;9.424;2022-12-16T01:44:48;100613.06;;;-7.33;87.97
8653;BME280;4364;52.426;9.424;2022-12-16T01:47:21;100609.91;;;-7.29;87.98
8653;BME280;4364;52.426;9.424;2022-12-16T01:50:01;100607.25;;;-7.37;87.82
8653;BME280;4364;52.426;9.424;2022-12-16T01:52:33;100606.47;;;-7.29;88.26
8653;BME280;4364;52.426;9.424;2022-12-16T01:55:12;100606.13;;;-7.34;87.63
8653;BME280;4364;52.426;9.424;2022-12-16T01:57:47;100601.47;;;-7.40;88.11
8653;BME280;4364;52.426;9.424;2022-12-16T02:00:14;100604.59;;;-7.45;88.15
8653;BME280;4364;52.426;9.424;2022-12-16T02:02:43;100604.44;;;-7.43;87.79
8653;BME280;4364;52.426;9.424;2022-12-16T02:05:15;100604.59;;;-7.45;87.87
8653;BME280;4364;52.426;9.424;2022-12-16T02:07:57;100608.25;;;-7.46;88.13
8653;BME280;4364;52.426;9.424;2022-12-16T02:10:32;100619.31;;;-7.42;87.84
8653;BME280;4364;52.426;9.424;2022-12-16T02:13:10;100611.03;;;-7.48;87.41
8653;BME280;4364;52.426;9.424;2022-12-16T02:16:04;100611.69;;;-7.54;87.45
8653;BME280;4364;52.426;9.424;2022-12-16T02:18:54;100617.28;;;-7.57;87.49
8653;BME280;4364;52.426;9.424;2022-12-16T02:21:46;100622.38;;;-7.64;87.23
8653;BME280;4364;52.426;9.424;2022-12-16T02:24:29;100624.19;;;-7.64;87.38
8653;BME280;4364;52.426;9.424;2022-12-16T02:27:18;100625.72;;;-7.61;87.42
8653;BME280;4364;52.426;9.424;2022-12-16T02:30:03;100625.72;;;-7.61;87.84
8653;BME280;4364;52.426;9.424;2022-12-16T02:32:40;100623.06;;;-7.61;87.74
8653;BME280;4364;52.426;9.424;2022-12-16T02:35:32;100621.09;;;-7.59;87.77
8653;BME280;4364;52.426;9.424;2022-12-16T02:40:54;100618.22;;;-7.74;87.88
8653;BME280;4364;52.426;9.424;2022-12-16T02:46:20;100623.03;;;-7.70;88.45
8653;BME280;4364;52.426;9.424;2022-12-16T02:48:48;100625.88;;;-7.63;88.00
8653;BME280;4364;52.426;9.424;2022-12-16T02:51:15;100620.25;;;-7.60;88.08
8653;BME280;4364;52.426;9.424;2022-12-16T02:53:45;100620.91;;;-7.66;87.51
8653;BME280;4364;52.426;9.424;2022-12-16T02:56:34;100627.63;;;-7.80;87.56
8653;BME280;4364;52.426;9.424;2022-12-16T03:02:05;100630.53;;;-7.91;87.81
8653;BME280;4364;52.426;9.424;2022-12-16T03:04:42;100629.69;;;-7.92;87.63
8653;BME280;4364;52.426;9.424;2022-12-16T03:07:12;100626.34;;;-8.02;87.18
8653;BME280;4364;52.426;9.424;2022-12-16T03:09:41;100618.72;;;-8.05;87.63
8653;BME280;4364;52.426;9.424;2022-12-16T03:12:11;100621.00;;;-8.10;87.27
8653;BME280;4364;52.426;9.424;2022-12-16T03:14:44;100621.72;;;-8.08;87.63
8653;BME280;4364;52.426;9.424;2022-12-16T03:17:13;100622.38;;;-8.06;87.47
8653;BME280;4364;52.426;9.424;2022-12-16T03:19:44;100634.53;;;-8.13;86.65
8653;BME280;4364;52.426;9.424;2022-12-16T03:22:19;100637.66;;;-8.18;87.17
8653;BME280;4364;52.426;9.424;2022-12-16T03:24:47;100636.13;;;-8.21;87.10
8653;BME280;4364;52.426;9.424;2022-12-16T03:27:24;100636.78;;;-8.27;86.83
8653;BME280;4364;52.426;9.424;2022-12-16T03:32:36;100641.19;;;-8.27;86.85
8653;BME280;4364;52.426;9.424;2022-12-16T03:35:18;100644.16;;;-8.30;86.63
8653;BME280;4364;52.426;9.424;2022-12-16T03:37:47;100634.75;;;-8.33;86.38
8653;BME280;4364;52.426;9.424;2022-12-16T03:40:15;100645.75;;;-8.38;86.47
8653;BME280;4364;52.426;9.424;2022-12-16T03:42:42;100641.63;;;-8.40;86.48
8653;BME280;4364;52.426;9.424;2022-12-16T03:45:15;100641.50;;;-8.30;86.53
8653;BME280;4364;52.426;9.424;2022-12-16T03:47:50;100637.91;;;-8.29;86.26
8653;BME280;4364;52.426;9.424;2022-12-16T03:50:25;100635.25;;;-8.29;86.24
8653;BME280;4364;52.426;9.424;2022-12-16T03:52:52;100644.50;;;-8.25;86.26
8653;BME280;4364;52.426;9.424;2022-12-16T03:55:19;100645.06;;;-8.22;86.17
8653;BME280;4364;52.426;9.424;2022-12-16T03:57:46;100638.78;;;-8.21;86.13
8653;BME280;4364;52.426;9.424;2022-12-16T04:00:12;100636.97;;;-8.20;85.90
8653;BME280;4364;52.426;9.424;2022-12-16T04:02:40;100643.13;;;-8.11;85.94
8653;BME280;4364;52.426;9.424;2022-12-16T04:05:08;100645.63;;;-8.10;85.84
8653;BME280;4364;52.426;9.424;2022-12-16T04:07:34;100650.19;;;-8.12;85.76
8653;BME280;4364;52.426;9.424;2022-12-16T04:10:01;100632.09;;;-8.07;86.02
8653;BME280;4364;52.426;9.424;2022-12-16T04:12:27;100650.69;;;-8.16;85.73
8653;BME280;4364;52.426;9.424;2022-12-16T04:15:13;100651.25;;;-8.31;85.75
8653;BME280;4364;52.426;9.424;2022-12-16T04:17:58;100652.34;;;-8.42;85.54
8653;BME280;4364;52.426;9.424;2022-12-16T04:20:46;100650.19;;;-8.46;85.81
8653;BME280;4364;52.426;9.424;2022-12-16T04:23:33;100649.59;;;-8.58;85.85
8653;BME280;4364;52.426;9.424;2022-12-16T04:26:20;100645.09;;;-8.66;86.12
8653;BME280;4364;52.426;9.424;2022-12-16T04:28:46;100656.31;;;-8.64;86.51
8653;BME280;4364;52.426;9.424;2022-12-16T04:31:13;100653.81;;;-8.65;86.32
8653;BME280;4364;52.426;9.424;2022-12-16T04:33:39;100662.72;;;-8.66;86.53
8653;BME280;4364;52.426;9.424;2022-12-16T04:36:24;100666.53;;;-8.61;86.31
8653;BME280;4364;52.426;9.424;2022-12-16T04:39:09;100666.09;;;-8.56;86.15
8653;BME280;4364;52.426;9.424;2022-12-16T04:41:55;100670.25;;;-8.53;85.72
8653;BME280;4364;52.426;9.424;2022-12-16T04:44:40;100670.69;;;-8.58;85.70
8653;BME280;4364;52.426;9.424;2022-12-16T04:47:26;100672.50;;;-8.59;85.61
8653;BME280;4364;52.426;9.424;2022-12-16T04:50:11;100679.72;;;-8.61;85.36
8653;BME280;4364;52.426;9.424;2022-12-16T04:52:56;100669.03;;;-8.59;85.71
8653;BME280;4364;52.426;9.424;2022-12-16T04:55:42;100677.41;;;-8.64;85.53
8653;BME280;4364;52.426;9.424;2022-12-16T04:58:30;100683.59;;;-8.73;85.58
8653;BME280;4364;52.426;9.424;2022-12-16T05:01:15;100679.06;;;-8.81;85.57
8653;BME280;4364;52.426;9.424;2022-12-16T05:04:01;100686.81;;;-8.79;85.96
8653;BME280;4364;52.426;9.424;2022-12-16T05:06:45;100683.53;;;-8.81;85.49
8653;BME280;4364;52.426;9.424;2022-12-16T05:09:31;100687.75;;;-8.88;85.65
8653;BME280;4364;52.426;9.424;2022-12-16T05:12:16;100684.56;;;-8.92;85.42
8653;BME280;4364;52.426;9.424;2022-12-16T05:15:02;100685.56;;;-8.93;85.46
8653;BME280;4364;52.426;9.424;2022-12-16T05:17:47;100690.44;;;-8.98;85.90
8653;BME280;4364;52.426;9.424;2022-12-16T05:20:32;100690.44;;;-8.98;86.08
8653;BME280;4364;52.426;9.424;2022-12-16T05:23:17;100699.47;;;-9.01;86.12
8653;BME280;4364;52.426;9.424;2022-12-16T05:26:02;100700.97;;;-8.98;86.28
8653;BME280;4364;52.426;9.424;2022-12-16T05:28:47;100695.56;;;-8.97;85.50
8653;BME280;4364;52.426;9.424;2022-12-16T05:31:32;100694.09;;;-9.09;85.40
8653;BME280;4364;52.426;9.424;2022-12-16T05:34:17;100706.59;;;-9.11;85.62
8653;BME280;4364;52.426;9.424;2022-12-16T05:37:02;100707.50;;;-9.02;85.88
8653;BME280;4364;52.426;9.424;2022-12-16T05:39:47;100714.25;;;-8.90;85.08
8653;BME280;4364;52.426;9.424;2022-12-16T05:42:33;100703.91;;;-9.01;84.72
8653;BME280;4364;52.426;9.424;2022-12-16T05:45:18;100715.28;;;-9.01;84.60
8653;BME280;4364;52.426;9.424;2022-12-16T05:48:03;100725.72;;;-9.09;85.12
8653;BME280;4364;52.426;9.424;2022-12-16T05:50:49;100717.09;;;-9.01;85.35
8653;BME280;4364;52.426;9.424;2022-12-16T05:53:34;100713.88;;;-8.95;84.79
8653;BME280;4364;52.426;9.424;2022-12-16T05:56:19;100719.28;;;-8.97;85.27
8653;BME280;4364;52.426;9.424;2022-12-16T05:59:04;100733.44;;;-8.98;84.60
8653;BME280;4364;52.426;9.424;2022-12-16T06:01:50;100736.06;;;-8.98;84.85
8653;BME280;4364;52.426;9.424;2022-12-16T06:04:35;100738.63;;;-8.88;85.08
8653;BME280;4364;52.426;9.424;2022-12-16T06:07:20;100747.81;;;-8.92;84.73
8653;BME280;4364;52.426;9.424;2022-12-16T06:10:05;100752.31;;;-9.02;85.40
8653;BME280;4364;52.426;9.424;2022-12-16T06:12:50;100750.63;;;-8.93;85.12
8653;BME280;4364;52.426;9.424;2022-12-16T06:15:35;100756.56;;;-8.91;85.65
8653;BME280;4364;52.426;9.424;2022-12-16T06:18:20;100761.06;;;-9.02;85.55
8653;BME280;4364;52.426;9.424;2022-12-16T06:21:05;100774.09;;;-9.00;85.42
8653;BME280;4364;52.426;9.424;2022-12-16T06:23:50;100772.81;;;-8.96;85.16
8653;BME280;4364;52.426;9.424;2022-12-16T06:26:35;100769.03;;;-9.11;85.35
8653;BME280;4364;52.426;9.424;2022-12-16T06:29:20;100785.84;;;-9.22;85.93
8653;BME280;4364;52.426;9.424;2022-12-16T06:32:05;100781.28;;;-9.20;86.42
8653;BME280;4364;52.426;9.424;2022-12-16T06:34:50;100780.97;;;-9.17;86.62
8653;BME280;4364;52.426;9.424;2022-12-16T06:37:35;100790.66;;;-9.18;86.18
8653;BME280;4364;52.426;9.424;2022-12-16T06:40:20;100791.97;;;-9.22;86.45
8653;BME280;4364;52.426;9.424;2022-12-16T06:43:05;100806.09;;;-9.23;86.39
8653;BME280;4364;52.426;9.424;2022-12-16T06:45:51;100808.25;;;-9.08;86.81
8653;BME280;4364;52.426;9.424;2022-12-16T06:48:36;100809.31;;;-9.01;86.45
8653;BME280;4364;52.426;9.424;2022-12-16T06:51:21;100813.22;;;-9.05;86.30
8653;BME280;4364;52.426;9.424;2022-12-16T06:54:06;100807.13;;;-9.06;86.17
8653;BME280;4364;52.426;9.424;2022-12-16T06:56:52;100822.53;;;-9.11;86.07
8653;BME280;4364;52.426;9.424;2022-12-16T06:59:36;100821.84;;;-9.13;86.00
8653;BME280;4364;52.426;9.424;2022-12-16T07:02:21;100829.09;;;-9.15;85.75
8653;BME280;4364;52.426;9.424;2022-12-16T07:05:07;100837.00;;;-9.15;86.15
8653;BME280;4364;52.426;9.424;2022-12-16T07:07:52;100840.34;;;-9.23;85.88
8653;BME280;4364;52.426;9.424;2022-12-16T07:10:37;100849.44;;;-9.17;86.01
8653;BME280;4364;52.426;9.424;2022-12-16T07:13:41;100850.94;;;-9.05;85.73
8653;BME280;4364;52.426;9.424;2022-12-16T07:16:27;100857.94;;;-9.14;85.10
8653;BME280;4364;52.426;9.424;2022-12-16T07:19:12;100855.28;;;-9.14;85.49
8653;BME280;4364;52.426;9.424;2022-12-16T07:21:57;100866.75;;;-9.05;85.58
8653;BME280;4364;52.426;9.424;2022-12-16T07:24:43;100866.59;;;-8.93;84.96
8653;BME280;4364;52.426;9.424;2022-12-16T07:27:27;100869.50;;;-8.97;85.13
8653;BME280;4364;52.426;9.424;2022-12-16T07:30:12;100877.56;;;-8.98;84.99
8653;BME280;4364;52.426;9.424;2022-12-16T07:32:58;100881.78;;;-8.87;85.36
8653;BME280;4364;52.426;9.424;2022-12-16T07:35:43;100889.81;;;-8.79;85.23
8653;BME280;4364;52.426;9.424;2022-12-16T07:38:28;100896.72;;;-8.68;85.02
8653;BME280;4364;52.426;9.424;2022-12-16T07:41:13;100906.53;;;-8.70;84.69
8653;BME280;4364;52.426;9.424;2022-12-16T07:43:58;100904.72;;;-8.60;85.14
8653;BME280;4364;52.426;9.424;2022-12-16T07:46:43;100902.72;;;-8.48;84.95
8653;BME280;4364;52.426;9.424;2022-12-16T07:49:28;100907.59;;;-8.35;84.70
8653;BME280;4364;52.426;9.424;2022-12-16T07:52:13;100915.59;;;-8.27;85.00
8653;BME280;4364;52.426;9.424;2022-12-16T07:54:58;100916.97;;;-8.23;84.66
8653;BME280;4364;52.426;9.424;2022-12-16T07:57:49;100925.56;;;-8.21;84.90
8653;BME280;4364;52.426;9.424;2022-12-16T08:00:34;100928.28;;;-8.13;84.99
8653;BME280;4364;52.426;9.424;2022-12-16T08:03:21;100934.47;;;-8.04;84.98
8653;BME280;4364;52.426;9.424;2022-12-16T08:06:07;100932.22;;;-7.99;85.08
8653;BME280;4364;52.426;9.424;2022-12-16T08:08:52;100938.88;;;-7.95;84.94
8653;BME280;4364;52.426;9.424;2022-12-16T08:11:42;100942.56;;;-7.88;85.05
8653;BME280;4364;52.426;9.424;2022-12-16T08:14:26;100945.06;;;-7.86;84.92
8653;BME280;4364;52.426;9.424;2022-12-16T08:17:11;100951.16;;;-7.86;85.27
8653;BME280;4364;52.426;9.424;2022-12-16T08:19:56;100954.78;;;-7.87;85.12
8653;BME280;4364;52.426;9.424;2022-12-16T08:22:42;100960.50;;;-7.91;85.18
8653;BME280;4364;52.426;9.424;2022-12-16T08:25:27;100958.78;;;-7.83;85.28
8653;BME280;4364;52.426;9.424;2022-12-16T08:28:12;100952.75;;;-7.93;85.17
8653;BME280;4364;52.426;9.424;2022-12-16T08:30:57;100962.31;;;-7.92;85.41
8653;BME280;4364;52.426;9.424;2022-12-16T08:33:42;100969.25;;;-7.91;85.40
8653;BME280;4364;52.426;9.424;2022-12-16T08:36:41;100968.38;;;-7.82;85.56
8653;BME280;4364;52.426;9.424;2022-12-16T08:39:28;100969.03;;;-7.79;85.65
8653;BME280;4364;52.426;9.424;2022-12-16T08:42:47;100982.78;;;-7.76;85.32
8653;BME280;4364;52.426;9.424;2022-12-16T08:45:38;100986.75;;;-7.72;85.19
8653;BME280;4364;52.426;9.424;2022-12-16T08:48:24;100991.31;;;-7.64;85.57
8653;BME280;4364;52.426;9.424;2022-12-16T08:51:09;100983.69;;;-7.49;85.52
8653;BME280;4364;52.426;9.424;2022-12-16T08:53:54;100977.81;;;-7.43;85.80
8653;BME280;4364;52.426;9.424;2022-12-16T08:56:39;100983.38;;;-7.28;85.62
8653;BME280;4364;52.426;9.424;2022-12-16T08:59:26;100994.38;;;-7.15;85.79
8653;BME280;4364;52.426;9.424;2022-12-16T09:02:11;100999.53;;;-7.05;85.82
8653;BME280;4364;52.426;9.424;2022-12-16T09:05:16;101015.69;;;-6.90;85.55
8653;BME280;4364;52.426;9.424;2022-12-16T09:08:02;101016.38;;;-6.88;85.62
8653;BME280;4364;52.426;9.424;2022-12-16T09:10:48;101014.31;;;-6.76;85.80
8653;BME280;4364;52.426;9.424;2022-12-16T09:13:33;101020.97;;;-6.64;85.99
8653;BME280;4364;52.426;9.424;2022-12-16T09:16:19;101021.19;;;-6.57;86.26
8653;BME280;4364;52.426;9.424;2022-12-16T09:19:09;101021.69;;;-6.54;86.34
8653;BME280;4364;52.426;9.424;2022-12-16T09:21:54;101022.22;;;-6.50;86.41
8653;BME280;4364;52.426;9.424;2022-12-16T09:24:39;101027.56;;;-6.42;86.31
8653;BME280;4364;52.426;9.424;2022-12-16T09:27:25;101027.28;;;-6.30;86.38
8653;BME280;4364;52.426;9.424;2022-12-16T09:30:10;101025.81;;;-6.33;86.83
8653;BME280;4364;52.426;9.424;2022-12-16T09:32:55;101037.25;;;-6.24;86.78
8653;BME280;4364;52.426;9.424;2022-12-16T09:35:44;101035.63;;;-6.17;87.14
8653;BME280;4364;52.426;9.424;2022-12-16T09:38:29;101038.66;;;-6.04;87.22
8653;BME280;4364;52.426;9.424;2022-12-16T09:47:33;101046.16;;;-5.83;87.67
8653;BME280;4364;52.426;9.424;2022-12-16T09:50:25;101051.31;;;-5.73;88.35
8653;BME280;4364;52.426;9.424;2022-12-16T09:53:18;101047.69;;;-5.64;88.09
8653;BME280;4364;52.426;9.424;2022-12-16T09:56:20;101052.34;;;-5.57;89.13
8653;BME280;4364;52.426;9.424;2022-12-16T09:59:12;101040.09;;;-5.50;89.22
8653;BME280;4364;52.426;9.424;2022-12-16T10:01:59;101042.09;;;-5.44;89.20
8653;BME280;4364;52.426;9.424;2022-12-16T10:04:50;101048.25;;;-5.35;89.04
8653;BME280;4364;52.426;9.424;2022-12-16T10:07:39;101039.47;;;-5.28;89.10
8653;BME280;4364;52.426;9.424;2022-12-16T10:10:44;101044.59;;;-5.18;89.36
8653;BME280;4364;52.426;9.424;2022-12-16T10:13:36;101043.78;;;-5.10;89.03
8653;BME280;4364;52.426;9.424;2022-12-16T10:19:46;101054.72;;;-5.05;89.24
8653;BME280;4364;52.426;9.424;2022-12-16T10:22:56;101047.91;;;-4.99;89.61
8653;BME280;4364;52.426;9.424;2022-12-16T10:25:54;101042.97;;;-5.03;89.74
8653;BME280;4364;52.426;9.424;2022-12-16T10:28:51;101044.94;;;-4.96;89.93
8653;BME280;4364;52.426;9.424;2022-12-16T10:31:40;101051.75;;;-4.94;90.40
8653;BME280;4364;52.426;9.424;2022-12-16T10:34:29;101055.38;;;-4.95;90.31
8653;BME280;4364;52.426;9.424;2022-12-16T10:37:32;101055.38;;;-4.87;90.08
8653;BME280;4364;52.426;9.424;2022-12-16T10:40:22;101058.00;;;-4.62;90.38
8653;BME280;4364;52.426;9.424;2022-12-16T10:43:14;101059.00;;;-4.71;90.38
8653;BME280;4364;52.426;9.424;2022-12-16T10:46:04;101060.69;;;-4.87;90.54
8653;BME280;4364;52.426;9.424;2022-12-16T10:48:51;101059.38;;;-4.99;90.88
8653;BME280;4364;52.426;9.424;2022-12-16T10:51:36;101064.03;;;-5.01;90.60
8653;BME280;4364;52.426;9.424;2022-12-16T10:54:34;101061.34;;;-4.93;91.03
8653;BME280;4364;52.426;9.424;2022-12-16T11:00:14;101063.50;;;-4.96;90.85
8653;BME280;4364;52.426;9.424;2022-12-16T11:03:19;101062.19;;;-5.00;91.25
8653;BME280;4364;52.426;9.424;2022-12-16T11:06:06;101070.63;;;-5.05;91.36
8653;BME280;4364;52.426;9.424;2022-12-16T11:08:51;101062.84;;;-4.98;90.94
8653;BME280;4364;52.426;9.424;2022-12-16T11:12:13;101069.97;;;-4.91;91.22
8653;BME280;4364;52.426;9.424;2022-12-16T11:15:30;101075.28;;;-4.99;90.91
8653;BME280;4364;52.426;9.424;2022-12-16T11:18:19;101082.25;;;-4.90;91.56
8653;BME280;4364;52.426;9.424;2022-12-16T11:21:11;101081.25;;;-4.72;91.46
8653;BME280;4364;52.426;9.424;2022-12-16T11:24:11;101085.03;;;-4.50;91.62
8653;BME280;4364;52.426;9.424;2022-12-16T11:26:59;101080.03;;;-4.29;91.84
8653;BME280;4364;52.426;9.424;2022-12-16T11:29:59;101082.06;;;-3.99;90.59
8653;BME280;4364;52.426;9.424;2022-12-16T11:32:48;101081.53;;;-3.86;90.30
8653;BME280;4364;52.426;9.424;2022-12-16T11:35:37;101079.31;;;-3.75;89.29
8653;BME280;4364;52.426;9.424;2022-12-16T11:41:28;101076.66;;;-3.75;89.34
8653;BME280;4364;52.426;9.424;2022-12-16T11:44:18;101079.47;;;-3.68;89.92
8653;BME280;4364;52.426;9.424;2022-12-16T11:47:15;101081.25;;;-3.60;89.71
8653;BME280;4364;52.426;9.424;2022-12-16T11:50:07;101085.56;;;-3.59;89.53
8653;BME280;4364;52.426;9.424;2022-12-16T11:52:55;101079.34;;;-3.43;90.26
8653;BME280;4364;52.426;9.424;2022-12-16T11:55:43;101082.94;;;-3.36;90.01
8653;BME280;4364;52.426;9.424;2022-12-16T11:58:45;101078.03;;;-3.24;90.21
8653;BME280;4364;52.426;9.424;2022-12-16T12:01:37;101073.91;;;-3.27;89.71
8653;BME280;4364;52.426;9.424;2022-12-16T12:04:26;101079.00;;;-3.17;90.26
8653;BME280;4364;52.426;9.424;2022-12-16T12:10:32;101082.25;;;-3.07;90.33
8653;BME280;4364;52.426;9.424;2022-12-16T12:13:41;101087.53;;;-2.99;90.61
8653;BME280;4364;52.426;9.424;2022-12-16T12:19:41;101089.13;;;-2.74;90.67
8653;BME280;4364;52.426;9.424;2022-12-16T12:22:34;101089.03;;;-2.81;90.50
8653;BME280;4364;52.426;9.424;2022-12-16T12:25:30;101095.19;;;-2.81;90.72
8653;BME280;4364;52.426;9.424;2022-12-16T12:31:52;101104.81;;;-2.56;90.78
8653;BME280;4364;52.426;9.424;2022-12-16T12:34:48;101108.06;;;-2.69;91.29
8653;BME280;4364;52.426;9.424;2022-12-16T12:37:59;101114.06;;;-2.67;91.80
8653;BME280;4364;52.426;9.424;2022-12-16T12:41:03;101118.00;;;-2.63;91.31
8653;BME280;4364;52.426;9.424;2022-12-16T12:47:14;101121.94;;;-2.59;92.45
8653;BME280;4364;52.426;9.424;2022-12-16T12:59:01;101117.97;;;-2.40;92.48
8653;BME280;4364;52.426;9.424;2022-12-16T13:01:50;101118.81;;;-2.25;91.81
8653;BME280;4364;52.426;9.424;2022-12-16T13:04:37;101130.38;;;-2.32;91.81
8653;BME280;4364;52.426;9.424;2022-12-16T13:07:23;101130.78;;;-2.20;92.41
8653;BME280;4364;52.426;9.424;2022-12-16T13:10:32;101138.94;;;-2.22;92.60
8653;BME280;4364;52.426;9.424;2022-12-16T13:16:11;101145.81;;;-2.28;92.73
8653;BME280;4364;52.426;9.424;2022-12-16T13:22:29;101140.94;;;-2.24;92.99
8653;BME280;4364;52.426;9.424;2022-12-16T13:28:33;101150.84;;;-2.33;92.78
8653;BME280;4364;52.426;9.424;2022-12-16T13:31:19;101153.41;;;-2.39;92.66
8653;BME280;4364;52.426;9.424;2022-12-16T13:34:19;101154.06;;;-2.37;93.42
8653;BME280;4364;52.426;9.424;2022-12-16T13:37:05;101155.38;;;-2.33;93.39
8653;BME280;4364;52.426;9.424;2022-12-16T13:40:11;101157.09;;;-2.26;93.58
8653;BME280;4364;52.426;9.424;2022-12-16T13:42:59;101156.13;;;-2.25;93.19
8653;BME280;4364;52.426;9.424;2022-12-16T13:48:49;101162.53;;;-2.34;93.18
8653;BME280;4364;52.426;9.424;2022-12-16T13:54:40;101163.34;;;-2.33;94.10
8653;BME280;4364;52.426;9.424;2022-12-16T13:57:29;101163.75;;;-2.21;93.60
8653;BME280;4364;52.426;9.424;2022-12-16T14:00:23;101169.50;;;-2.33;93.41
8653;BME280;4364;52.426;9.424;2022-12-16T14:03:13;101171.81;;;-2.30;93.96
8653;BME280;4364;52.426;9.424;2022-12-16T14:06:03;101176.31;;;-2.30;93.88
8653;BME280;4364;52.426;9.424;2022-12-16T14:08:50;101180.09;;;-2.25;93.92
8653;BME280;4364;52.426;9.424;2022-12-16T14:11:46;101182.56;;;-2.23;94.12
8653;BME280;4364;52.426;9.424;2022-12-16T14:14:47;101195.09;;;-2.24;94.26
8653;BME280;4364;52.426;9.424;2022-12-16T14:17:53;101190.41;;;-2.21;94.02
8653;BME280;4364;52.426;9.424;2022-12-16T14:20:49;101198.75;;;-2.25;94.49
8653;BME280;4364;52.426;9.424;2022-12-16T14:23:41;101191.28;;;-2.29;94.62
8653;BME280;4364;52.426;9.424;2022-12-16T14:26:28;101197.81;;;-2.32;95.09
8653;BME280;4364;52.426;9.424;2022-12-16T14:29:31;101199.75;;;-2.26;95.13
8653;BME280;4364;52.426;9.424;2022-12-16T14:32:28;101205.16;;;-2.34;94.91
8653;BME280;4364;52.426;9.424;2022-12-16T14:38:24;101211.31;;;-2.33;95.74
8653;BME280;4364;52.426;9.424;2022-12-16T14:41:14;101210.50;;;-2.34;95.58
8653;BME280;4364;52.426;9.424;2022-12-16T14:44:00;101217.81;;;-2.36;95.44
8653;BME280;4364;52.426;9.424;2022-12-16T14:46:49;101224.34;;;-2.38;95.83
8653;BME280;4364;52.426;9.424;2022-12-16T14:49:35;101226.38;;;-2.40;95.84
8653;BME280;4364;52.426;9.424;2022-12-16T14:52:26;101221.03;;;-2.40;96.35
8653;BME280;4364;52.426;9.424;2022-12-16T14:55:33;101233.50;;;-2.41;96.37
8653;BME280;4364;52.426;9.424;2022-12-16T14:58:21;101242.22;;;-2.47;96.51
8653;BME280;4364;52.426;9.424;2022-12-16T15:01:23;101246.22;;;-2.51;96.54
8653;BME280;4364;52.426;9.424;2022-12-16T15:04:17;101245.59;;;-2.53;96.52
8653;BME280;4364;52.426;9.424;2022-12-16T15:07:06;101251.44;;;-2.58;96.86
8653;BME280;4364;52.426;9.424;2022-12-16T15:09:58;101250.78;;;-2.60;97.03
8653;BME280;4364;52.426;9.424;2022-12-16T15:12:46;101246.47;;;-2.61;96.89
8653;BME280;4364;52.426;9.424;2022-12-16T15:15:37;101257.97;;;-2.61;96.93
8653;BME280;4364;52.426;9.424;2022-12-16T15:18:31;101261.97;;;-2.65;97.42
8653;BME280;4364;52.426;9.424;2022-12-16T15:21:18;101256.63;;;-2.65;97.58
8653;BME280;4364;52.426;9.424;2022-12-16T15:24:14;101253.34;;;-2.67;97.47
8653;BME280;4364;52.426;9.424;2022-12-16T15:30:33;101269.94;;;-2.65;97.36
8653;BME280;4364;52.426;9.424;2022-12-16T15:33:22;101263.16;;;-2.67;97.65
8653;BME280;4364;52.426;9.424;2022-12-16T15:36:28;101270.81;;;-2.72;97.49
8653;BME280;4364;52.426;9.424;2022-12-16T15:42:37;101292.50;;;-2.75;97.42
8653;BME280;4364;52.426;9.424;2022-12-16T15:48:28;101291.72;;;-2.92;97.47
8653;BME280;4364;52.426;9.424;2022-12-16T15:51:41;101304.38;;;-2.94;97.89
8653;BME280;4364;52.426;9.424;2022-12-16T15:54:27;101304.88;;;-2.99;98.03
8653;BME280;4364;52.426;9.424;2022-12-16T15:57:33;101311.06;;;-2.99;98.39